createdAt,value
2023-03-19T00:00:21.786Z,98386.72
2023-03-19T00:02:51.851Z,98383.72
2023-03-19T00:05:19.970Z,98378.84
2023-03-19T00:07:47.850Z,98389.66
2023-03-19T00:10:15.841Z,98388.19
2023-03-19T00:12:43.837Z,98387.69
2023-03-19T00:15:14.537Z,98394.66
2023-03-19T00:17:43.966Z,98389.13
2023-03-19T00:20:15.569Z,98393.22
2023-03-19T00:22:43.780Z,98385.50
2023-03-19T00:25:12.214Z,98390.84
2023-03-19T00:27:41.255Z,98388.94
2023-03-19T00:30:11.452Z,98384.81
2023-03-19T00:32:39.610Z,98389.38
2023-03-19T00:35:10.696Z,98388.03
2023-03-19T00:37:41.020Z,98386.75
2023-03-19T00:40:11.764Z,98389.66
2023-03-19T00:42:41.288Z,98390.88
2023-03-19T00:45:10.660Z,98385.31
2023-03-19T00:47:38.847Z,98392.06
2023-03-19T00:50:07.790Z,98396.41
2023-03-19T00:52:37.052Z,98391.47
2023-03-19T00:55:05.424Z,98401.66
2023-03-19T00:57:33.240Z,98406.00
2023-03-19T01:00:01.035Z,98401.44
2023-03-19T01:02:29.285Z,98400.38
2023-03-19T01:04:57.235Z,98394.13
2023-03-19T01:07:25.140Z,98398.06
2023-03-19T01:09:54.412Z,98395.75
2023-03-19T01:12:22.403Z,98397.88
2023-03-19T01:14:50.333Z,98402.06
2023-03-19T01:17:18.710Z,98398.47
2023-03-19T01:19:46.691Z,98409.84
2023-03-19T01:22:16.651Z,98414.41
2023-03-19T01:24:49.158Z,98418.03
2023-03-19T01:27:19.430Z,98418.03
2023-03-19T01:29:47.375Z,98427.16
2023-03-19T01:32:28.535Z,98419.97
2023-03-19T01:35:15.122Z,98428.63
2023-03-19T01:37:43.505Z,98427.38
2023-03-19T01:40:13.973Z,98421.50
2023-03-19T01:42:58.761Z,98424.84
2023-03-19T01:45:43.849Z,98437.97
2023-03-19T01:48:39.069Z,98435.91
2023-03-19T01:51:13.169Z,98443.94
2023-03-19T01:54:02.270Z,98458.41
2023-03-19T01:56:39.130Z,98464.03
2023-03-19T01:59:32.516Z,98466.81
2023-03-19T02:02:30.684Z,98462.47
2023-03-19T02:05:05.687Z,98460.84
2023-03-19T02:07:36.544Z,98459.59
2023-03-19T02:10:09.199Z,98459.38
2023-03-19T02:12:37.308Z,98453.47
2023-03-19T02:15:09.383Z,98457.44
2023-03-19T02:17:38.144Z,98459.59
2023-03-19T02:20:14.596Z,98455.75
2023-03-19T02:22:47.509Z,98456.59
2023-03-19T02:25:23.660Z,98463.22
2023-03-19T02:27:53.657Z,98458.41
2023-03-19T02:30:24.730Z,98461.28
2023-03-19T02:32:52.943Z,98463.47
2023-03-19T02:35:21.367Z,98476.94
2023-03-19T02:37:49.733Z,98474.75
2023-03-19T02:40:22.425Z,98481.72
2023-03-19T02:42:51.279Z,98481.00
2023-03-19T02:45:21.344Z,98460.56
2023-03-19T02:47:49.217Z,98464.78
2023-03-19T02:50:17.331Z,98452.91
2023-03-19T02:52:45.259Z,98445.53
2023-03-19T02:55:18.316Z,98451.81
2023-03-19T02:57:46.518Z,98451.44
2023-03-19T03:00:17.073Z,98451.91
2023-03-19T03:02:46.838Z,98460.06
2023-03-19T03:05:15.492Z,98458.25
2023-03-19T03:07:44.998Z,98461.97
2023-03-19T03:10:13.611Z,98470.69
2023-03-19T03:12:41.549Z,98465.94
2023-03-19T03:15:10.369Z,98467.66
2023-03-19T03:17:38.737Z,98465.38
2023-03-19T03:20:11.569Z,98473.06
2023-03-19T03:22:39.947Z,98476.41
2023-03-19T03:25:09.851Z,98476.41
2023-03-19T03:27:38.331Z,98468.28
2023-03-19T03:30:08.065Z,98463.47
2023-03-19T03:32:36.770Z,98471.41
2023-03-19T03:35:05.423Z,98464.66
2023-03-19T03:37:38.036Z,98463.00
2023-03-19T03:40:08.379Z,98468.75
2023-03-19T03:42:38.203Z,98475.47
2023-03-19T03:45:10.766Z,98465.63
2023-03-19T03:47:39.590Z,98473.31
2023-03-19T03:50:11.059Z,98479.44
2023-03-19T03:52:42.050Z,98475.84
2023-03-19T03:55:10.910Z,98482.09
2023-03-19T03:57:38.665Z,98481.50
2023-03-19T04:00:07.494Z,98478.09
2023-03-19T04:02:41.393Z,98485.31
2023-03-19T04:05:13.377Z,98481.84
2023-03-19T04:07:42.809Z,98495.81
2023-03-19T04:10:12.871Z,98500.50
2023-03-19T04:12:41.564Z,98503.69
2023-03-19T04:15:11.954Z,98495.75
2023-03-19T04:17:42.628Z,98493.88
2023-03-19T04:20:12.562Z,98494.22
2023-03-19T04:22:41.811Z,98496.16
2023-03-19T04:25:10.489Z,98505.63
2023-03-19T04:27:39.893Z,98507.94
2023-03-19T04:30:11.525Z,98506.53
2023-03-19T04:32:40.442Z,98500.69
2023-03-19T04:35:09.471Z,98505.25
2023-03-19T04:37:37.604Z,98501.44
2023-03-19T04:40:08.454Z,98504.31
2023-03-19T04:42:38.561Z,98500.50
2023-03-19T04:45:14.662Z,98508.91
2023-03-19T04:47:43.657Z,98504.09
2023-03-19T04:50:12.909Z,98512.25
2023-03-19T04:52:42.635Z,98508.66
2023-03-19T04:55:13.434Z,98516.59
2023-03-19T04:57:52.074Z,98515.75
2023-03-19T05:00:23.057Z,98518.16
2023-03-19T05:02:51.361Z,98519.97
2023-03-19T05:05:19.460Z,98526.19
2023-03-19T05:07:47.698Z,98534.88
2023-03-19T05:10:16.962Z,98525.72
2023-03-19T05:12:45.070Z,98529.81
2023-03-19T05:15:13.993Z,98531.25
2023-03-19T05:17:54.483Z,98532.72
2023-03-19T05:20:25.462Z,98532.56
2023-03-19T05:22:59.482Z,98533.41
2023-03-19T05:25:42.169Z,98541.50
2023-03-19T05:28:14.113Z,98538.13
2023-03-19T05:30:43.206Z,98538.59
2023-03-19T05:33:40.522Z,98538.47
2023-03-19T05:36:09.248Z,98542.34
2023-03-19T05:39:03.965Z,98541.13
2023-03-19T05:41:37.727Z,98539.41
2023-03-19T05:44:07.753Z,98541.72
2023-03-19T05:46:46.761Z,98539.56
2023-03-19T05:49:14.912Z,98538.00
2023-03-19T05:51:42.860Z,98551.22
2023-03-19T05:54:11.758Z,98549.78
2023-03-19T05:56:53.733Z,98558.06
2023-03-19T05:59:35.085Z,98554.09
2023-03-19T06:02:17.470Z,98555.44
2023-03-19T06:04:45.747Z,98555.66
2023-03-19T06:07:13.784Z,98557.38
2023-03-19T06:09:42.126Z,98561.31
2023-03-19T06:12:13.755Z,98564.81
2023-03-19T06:15:02.290Z,98564.09
2023-03-19T06:17:41.877Z,98566.50
2023-03-19T06:20:12.597Z,98576.19
2023-03-19T06:22:41.502Z,98568.63
2023-03-19T06:25:09.793Z,98575.63
2023-03-19T06:27:40.526Z,98575.03
2023-03-19T06:30:28.629Z,98573.34
2023-03-19T06:33:00.320Z,98575.28
2023-03-19T06:35:29.338Z,98564.44
2023-03-19T06:37:57.300Z,98573.66
2023-03-19T06:40:25.203Z,98567.97
2023-03-19T06:42:54.549Z,98579.16
2023-03-19T06:45:22.447Z,98574.13
2023-03-19T06:47:53.395Z,98578.06
2023-03-19T06:50:23.548Z,98572.88
2023-03-19T06:52:52.098Z,98567.25
2023-03-19T06:55:20.618Z,98569.06
2023-03-19T06:57:50.594Z,98568.91
2023-03-19T07:00:21.012Z,98578.41
2023-03-19T07:02:49.191Z,98572.63
2023-03-19T07:05:17.140Z,98577.91
2023-03-19T07:07:46.684Z,98573.47
2023-03-19T07:10:14.816Z,98583.38
2023-03-19T07:12:43.322Z,98577.69
2023-03-19T07:15:12.090Z,98581.91
2023-03-19T07:17:41.680Z,98585.31
2023-03-19T07:20:11.167Z,98585.16
2023-03-19T07:22:39.091Z,98580.53
2023-03-19T07:25:07.810Z,98589.69
2023-03-19T07:27:35.870Z,98585.81
2023-03-19T07:30:03.804Z,98592.59
2023-03-19T07:32:32.401Z,98596.66
2023-03-19T07:35:01.878Z,98596.75
2023-03-19T07:37:29.763Z,98593.03
2023-03-19T07:39:57.519Z,98598.00
2023-03-19T07:42:25.835Z,98598.91
2023-03-19T07:44:53.677Z,98599.47
2023-03-19T07:47:28.833Z,98598.50
2023-03-19T07:49:57.926Z,98607.47
2023-03-19T07:52:28.670Z,98613.69
2023-03-19T07:54:56.806Z,98611.03
2023-03-19T07:57:25.481Z,98604.19
2023-03-19T07:59:53.393Z,98605.69
2023-03-19T08:02:23.720Z,98607.38
2023-03-19T08:04:52.948Z,98614.06
2023-03-19T08:07:21.656Z,98603.97
2023-03-19T08:09:51.562Z,98601.75
2023-03-19T08:12:20.343Z,98601.16
2023-03-19T08:14:48.764Z,98605.56
2023-03-19T08:17:17.176Z,98600.56
2023-03-19T08:19:45.035Z,98609.91
2023-03-19T08:22:13.087Z,98608.19
2023-03-19T08:24:41.555Z,98597.34
2023-03-19T08:27:11.217Z,98606.53
2023-03-19T08:29:39.178Z,98601.25
2023-03-19T08:32:07.688Z,98598.38
2023-03-19T08:34:36.204Z,98602.91
2023-03-19T08:37:04.237Z,98600.25
2023-03-19T08:39:32.285Z,98605.53
2023-03-19T08:42:00.192Z,98599.13
2023-03-19T08:44:29.716Z,98605.78
2023-03-19T08:46:57.592Z,98599.88
2023-03-19T08:49:25.460Z,98600.94
2023-03-19T08:51:53.352Z,98608.03
2023-03-19T08:54:22.906Z,98610.63
2023-03-19T08:56:51.051Z,98608.88
2023-03-19T08:59:19.058Z,98617.34
2023-03-19T09:01:52.171Z,98619.44
2023-03-19T09:04:23.080Z,98623.09
2023-03-19T09:06:51.678Z,98618.09
2023-03-19T09:09:20.246Z,98619.50
2023-03-19T09:11:48.447Z,98627.75
2023-03-19T09:14:17.945Z,98625.25
2023-03-19T09:16:45.937Z,98620.97
2023-03-19T09:19:15.600Z,98629.09
2023-03-19T09:21:44.810Z,98620.03
2023-03-19T09:24:13.074Z,98625.50
2023-03-19T09:26:41.158Z,98622.28
2023-03-19T09:29:09.181Z,98620.31
2023-03-19T09:31:38.318Z,98622.31
2023-03-19T09:34:07.078Z,98622.59
2023-03-19T09:36:36.872Z,98614.09
2023-03-19T09:39:05.370Z,98615.44
2023-03-19T09:41:41.323Z,98610.63
2023-03-19T09:44:13.957Z,98609.63
2023-03-19T09:46:48.167Z,98606.91
2023-03-19T09:49:25.016Z,98608.25
2023-03-19T09:51:57.687Z,98602.53
2023-03-19T09:54:34.742Z,98601.69
2023-03-19T09:57:04.220Z,98599.84
2023-03-19T09:59:32.126Z,98603.81
2023-03-19T10:02:25.347Z,98602.59
2023-03-19T10:05:05.673Z,98598.16
2023-03-19T10:07:50.774Z,98596.03
2023-03-19T10:10:36.739Z,98591.38
2023-03-19T10:13:13.272Z,98588.88
2023-03-19T10:15:44.624Z,98589.06
2023-03-19T10:18:18.106Z,98581.50
2023-03-19T10:20:53.362Z,98581.66
2023-03-19T10:23:36.271Z,98577.03
2023-03-19T10:26:06.756Z,98572.72
2023-03-19T10:28:34.813Z,98573.38
2023-03-19T10:31:25.885Z,98575.72
2023-03-19T10:34:06.258Z,98567.38
2023-03-19T10:36:37.071Z,98566.06
2023-03-19T10:39:07.876Z,98563.19
2023-03-19T10:41:52.175Z,98557.34
2023-03-19T10:44:32.309Z,98547.13
2023-03-19T10:47:10.343Z,98559.34
2023-03-19T10:49:38.431Z,98549.16
2023-03-19T10:52:06.946Z,98546.63
2023-03-19T10:54:44.815Z,98535.44
2023-03-19T10:57:24.152Z,98539.91
2023-03-19T10:59:52.185Z,98539.59
2023-03-19T11:02:28.071Z,98534.59
2023-03-19T11:05:20.113Z,98533.56
2023-03-19T11:07:50.952Z,98536.56
2023-03-19T11:10:30.407Z,98526.41
2023-03-19T11:13:02.217Z,98531.91
2023-03-19T11:15:44.924Z,98530.19
2023-03-19T11:18:24.222Z,98529.63
2023-03-19T11:21:28.972Z,98533.66
2023-03-19T11:24:15.781Z,98528.16
2023-03-19T11:27:04.554Z,98521.56
2023-03-19T11:29:53.176Z,98528.59
2023-03-19T11:32:44.194Z,98528.13
2023-03-19T11:35:43.169Z,98525.25
2023-03-19T11:38:26.944Z,98519.13
2023-03-19T11:41:26.362Z,98513.84
2023-03-19T11:44:23.150Z,98514.97
2023-03-19T11:47:26.461Z,98511.94
2023-03-19T11:50:22.400Z,98500.63
2023-03-19T11:53:23.205Z,98497.38
2023-03-19T11:56:08.426Z,98495.84
2023-03-19T11:59:16.140Z,98489.06
2023-03-19T12:02:19.037Z,98493.09
2023-03-19T12:05:23.437Z,98495.75
2023-03-19T12:08:35.511Z,98494.59
2023-03-19T12:11:22.004Z,98483.47
2023-03-19T12:14:26.704Z,98486.31
2023-03-19T12:17:39.198Z,98475.69
2023-03-19T12:20:50.071Z,98486.66
2023-03-19T12:23:49.792Z,98485.81
2023-03-19T12:26:26.974Z,98485.09
2023-03-19T12:29:04.055Z,98487.94
2023-03-19T12:32:00.228Z,98492.53
2023-03-19T12:34:36.473Z,98481.53
2023-03-19T12:37:19.846Z,98487.22
2023-03-19T12:39:55.943Z,98481.06
2023-03-19T12:42:29.975Z,98477.38
2023-03-19T12:45:07.072Z,98490.16
2023-03-19T12:48:03.977Z,98495.50
2023-03-19T12:50:58.485Z,98499.72
2023-03-19T12:53:38.018Z,98496.81
2023-03-19T12:56:13.877Z,98495.88
2023-03-19T12:58:58.089Z,98500.72
2023-03-19T13:01:31.480Z,98509.72
2023-03-19T13:04:07.768Z,98511.19
2023-03-19T13:06:40.856Z,98507.16
2023-03-19T13:09:18.957Z,98510.44
2023-03-19T13:11:53.080Z,98516.66
2023-03-19T13:14:28.908Z,98535.34
2023-03-19T13:17:10.513Z,98527.53
2023-03-19T13:19:44.885Z,98542.78
2023-03-19T13:22:19.988Z,98544.19
2023-03-19T13:24:50.673Z,98546.84
2023-03-19T13:27:23.277Z,98556.94
2023-03-19T13:30:17.755Z,98553.53
2023-03-19T13:32:49.273Z,98541.94
2023-03-19T13:35:37.147Z,98540.88
2023-03-19T13:38:16.689Z,98545.31
2023-03-19T13:40:47.691Z,98528.03
2023-03-19T13:43:53.203Z,98524.50
2023-03-19T13:46:46.180Z,98527.56
2023-03-19T13:49:27.300Z,98521.06
2023-03-19T13:51:58.380Z,98524.41
2023-03-19T13:54:39.381Z,98526.56
2023-03-19T13:57:35.588Z,98521.25
2023-03-19T14:00:41.006Z,98518.84
2023-03-19T14:03:21.435Z,98512.31
2023-03-19T14:05:51.827Z,98523.94
2023-03-19T14:08:22.855Z,98516.38
2023-03-19T14:10:54.260Z,98521.47
2023-03-19T14:13:31.376Z,98517.41
2023-03-19T14:16:13.760Z,98519.31
2023-03-19T14:18:44.112Z,98519.16
2023-03-19T14:21:18.944Z,98515.41
2023-03-19T14:23:57.730Z,98506.56
2023-03-19T14:26:29.869Z,98504.56
2023-03-19T14:29:01.812Z,98504.97
2023-03-19T14:31:43.610Z,98501.84
2023-03-19T14:34:33.672Z,98504.59
2023-03-19T14:37:04.667Z,98501.50
2023-03-19T14:39:35.666Z,98507.81
2023-03-19T14:42:08.597Z,98503.59
2023-03-19T14:45:14.639Z,98512.94
2023-03-19T14:47:57.487Z,98519.28
2023-03-19T14:51:06.790Z,98523.22
2023-03-19T14:53:41.548Z,98529.38
2023-03-19T14:56:16.056Z,98520.34
2023-03-19T14:58:54.151Z,98526.81
2023-03-19T15:01:24.729Z,98525.50
2023-03-19T15:03:58.226Z,98530.16
2023-03-19T15:06:26.972Z,98535.78
2023-03-19T15:08:54.913Z,98530.41
2023-03-19T15:11:42.992Z,98528.91
2023-03-19T15:14:37.818Z,98525.16
2023-03-19T15:17:16.923Z,98529.97
2023-03-19T15:19:44.993Z,98532.31
2023-03-19T15:22:15.119Z,98533.81
2023-03-19T15:24:43.483Z,98542.06
2023-03-19T15:27:19.748Z,98540.56
2023-03-19T15:29:51.561Z,98544.47
2023-03-19T15:33:02.825Z,98535.28
2023-03-19T15:35:24.249Z,98542.06
2023-03-19T15:37:55.962Z,98534.22
2023-03-19T15:40:27.189Z,98538.59
2023-03-19T15:42:55.930Z,98546.16
2023-03-19T15:45:27.188Z,98542.34
2023-03-19T15:48:00.735Z,98550.28
2023-03-19T15:50:32.381Z,98548.13
2023-03-19T15:53:03.957Z,98550.06
2023-03-19T15:55:34.178Z,98556.94
2023-03-19T15:58:07.660Z,98565.63
2023-03-19T16:00:40.258Z,98560.66
2023-03-19T16:03:13.286Z,98566.16
2023-03-19T16:05:41.222Z,98566.84
2023-03-19T16:08:16.408Z,98569.22
2023-03-19T16:10:47.369Z,98577.59
2023-03-19T16:13:26.965Z,98587.72
2023-03-19T16:16:04.451Z,98593.88
2023-03-19T16:18:43.151Z,98609.16
2023-03-19T16:21:16.691Z,98611.38
2023-03-19T16:23:46.844Z,98620.47
2023-03-19T16:26:21.687Z,98625.38
2023-03-19T16:29:05.983Z,98633.78
2023-03-19T16:31:44.432Z,98634.19
2023-03-19T16:34:25.941Z,98631.13
2023-03-19T16:36:54.029Z,98641.03
2023-03-19T16:39:27.313Z,98651.25
2023-03-19T16:42:16.626Z,98645.16
2023-03-19T16:44:48.394Z,98647.97
2023-03-19T16:47:17.684Z,98649.91
2023-03-19T16:49:47.363Z,98642.81
2023-03-19T16:52:18.359Z,98642.63
2023-03-19T16:54:46.791Z,98651.50
2023-03-19T16:57:17.040Z,98645.94
2023-03-19T16:59:45.977Z,98647.41
2023-03-19T17:02:14.219Z,98650.63
2023-03-19T17:04:43.648Z,98657.25
2023-03-19T17:07:11.653Z,98656.38
2023-03-19T17:09:39.700Z,98657.38
2023-03-19T17:12:09.411Z,98653.81
2023-03-19T17:14:38.537Z,98653.56
2023-03-19T17:17:14.144Z,98661.56
2023-03-19T17:19:43.868Z,98656.47
2023-03-19T17:22:13.193Z,98662.81
2023-03-19T17:24:41.644Z,98659.44
2023-03-19T17:27:11.196Z,98670.09
2023-03-19T17:29:39.721Z,98676.00
2023-03-19T17:32:17.902Z,98679.63
2023-03-19T17:34:48.000Z,98688.28
2023-03-19T17:37:16.115Z,98705.59
2023-03-19T17:39:45.908Z,98708.28
2023-03-19T17:42:24.961Z,98706.69
2023-03-19T17:44:53.344Z,98710.06
2023-03-19T17:47:21.344Z,98707.63
2023-03-19T17:49:50.605Z,98713.81
2023-03-19T17:52:19.493Z,98710.31
2023-03-19T17:54:47.875Z,98716.97
2023-03-19T17:57:17.840Z,98719.31
2023-03-19T17:59:46.024Z,98724.88
2023-03-19T18:02:26.062Z,98721.97
2023-03-19T18:04:56.209Z,98731.56
2023-03-19T18:07:24.235Z,98733.69
2023-03-19T18:09:52.454Z,98731.31
2023-03-19T18:12:20.692Z,98726.81
2023-03-19T18:14:48.752Z,98729.28
2023-03-19T18:17:17.903Z,98717.06
2023-03-19T18:19:49.188Z,98725.94
2023-03-19T18:22:20.409Z,98721.66
2023-03-19T18:24:48.591Z,98727.28
2023-03-19T18:27:18.818Z,98730.41
2023-03-19T18:29:46.899Z,98728.03
2023-03-19T18:32:21.074Z,98735.09
2023-03-19T18:34:50.311Z,98732.75
2023-03-19T18:37:20.859Z,98733.00
2023-03-19T18:39:50.088Z,98733.72
2023-03-19T18:42:24.838Z,98733.16
2023-03-19T18:45:16.178Z,98736.25
2023-03-19T18:48:08.239Z,98731.03
2023-03-19T18:50:36.531Z,98734.53
2023-03-19T18:53:06.005Z,98738.28
2023-03-19T18:55:34.331Z,98737.94
2023-03-19T18:58:04.288Z,98744.91
2023-03-19T19:00:35.934Z,98748.50
2023-03-19T19:03:05.818Z,98755.03
2023-03-19T19:05:34.873Z,98752.41
2023-03-19T19:08:05.114Z,98756.28
2023-03-19T19:10:35.677Z,98752.66
2023-03-19T19:13:04.853Z,98758.91
2023-03-19T19:15:35.996Z,98766.13
2023-03-19T19:18:15.875Z,98768.31
2023-03-19T19:20:45.906Z,98773.38
2023-03-19T19:23:16.068Z,98774.09
2023-03-19T19:25:46.378Z,98774.09
2023-03-19T19:28:21.909Z,98769.25
2023-03-19T19:30:50.698Z,98772.44
2023-03-19T19:33:20.339Z,98765.94
2023-03-19T19:35:49.653Z,98783.06
2023-03-19T19:38:19.838Z,98773.41
2023-03-19T19:40:51.700Z,98770.03
2023-03-19T19:43:21.737Z,98778.47
2023-03-19T19:45:52.966Z,98780.41
2023-03-19T19:48:22.745Z,98781.44
2023-03-19T19:50:51.026Z,98777.22
2023-03-19T19:53:23.929Z,98779.38
2023-03-19T19:55:52.450Z,98781.34
2023-03-19T19:58:22.828Z,98783.75
2023-03-19T20:01:02.681Z,98784.75
2023-03-19T20:03:33.770Z,98789.44
2023-03-19T20:06:03.012Z,98789.06
2023-03-19T20:08:32.968Z,98798.25
2023-03-19T20:11:00.918Z,98804.00
2023-03-19T20:13:32.618Z,98802.06
2023-03-19T20:16:01.304Z,98802.78
2023-03-19T20:18:33.418Z,98809.41
2023-03-19T20:21:02.342Z,98809.78
2023-03-19T20:23:30.666Z,98810.75
2023-03-19T20:26:01.822Z,98817.50
2023-03-19T20:28:35.744Z,98814.84
2023-03-19T20:31:05.632Z,98817.25
2023-03-19T20:33:34.789Z,98812.81
2023-03-19T20:36:07.305Z,98817.03
2023-03-19T20:38:38.034Z,98817.03
2023-03-19T20:41:24.109Z,98820.16
2023-03-19T20:43:55.787Z,98818.44
2023-03-19T20:46:26.444Z,98815.00
2023-03-19T20:48:56.606Z,98821.00
2023-03-19T20:51:31.510Z,98817.50
2023-03-19T20:54:00.456Z,98831.38
2023-03-19T20:56:30.769Z,98830.03
2023-03-19T20:59:01.963Z,98824.00
2023-03-19T21:01:30.827Z,98835.81
2023-03-19T21:04:03.272Z,98839.88
2023-03-19T21:06:52.580Z,98846.16
2023-03-19T21:09:26.023Z,98839.31
2023-03-19T21:11:57.650Z,98843.25
2023-03-19T21:14:27.026Z,98847.19
2023-03-19T21:16:55.451Z,98846.81
2023-03-19T21:19:24.028Z,98841.16
2023-03-19T21:21:54.927Z,98836.97
2023-03-19T21:24:24.719Z,98835.38
2023-03-19T21:26:56.942Z,98850.53
2023-03-19T21:29:32.535Z,98847.44
2023-03-19T21:32:00.752Z,98843.75
2023-03-19T21:34:29.489Z,98852.16
2023-03-19T21:36:58.369Z,98857.88
2023-03-19T21:39:26.390Z,98855.94
2023-03-19T21:41:57.172Z,98862.41
2023-03-19T21:44:29.765Z,98860.16
2023-03-19T21:46:57.732Z,98864.81
2023-03-19T21:49:25.811Z,98864.78
2023-03-19T21:51:53.748Z,98859.25
2023-03-19T21:54:21.892Z,98865.50
2023-03-19T21:56:50.493Z,98875.09
2023-03-19T21:59:33.810Z,98871.09
2023-03-19T22:02:04.246Z,98869.75
2023-03-19T22:04:32.530Z,98873.31
2023-03-19T22:07:00.775Z,98872.13
2023-03-19T22:09:29.051Z,98866.16
2023-03-19T22:11:57.363Z,98859.06
2023-03-19T22:14:28.016Z,98869.56
2023-03-19T22:16:57.818Z,98863.75
2023-03-19T22:19:26.061Z,98874.91
2023-03-19T22:21:55.256Z,98870.66
2023-03-19T22:24:23.344Z,98868.06
2023-03-19T22:26:57.506Z,98879.72
2023-03-19T22:29:26.638Z,98885.66
2023-03-19T22:31:56.491Z,98890.25
2023-03-19T22:34:28.188Z,98886.59
2023-03-19T22:36:56.592Z,98884.84
2023-03-19T22:39:24.679Z,98894.78
2023-03-19T22:41:52.957Z,98904.38
2023-03-19T22:44:27.051Z,98900.19
2023-03-19T22:46:58.600Z,98906.19
2023-03-19T22:49:30.205Z,98913.66
2023-03-19T22:52:00.853Z,98918.22
2023-03-19T22:54:28.775Z,98921.50
2023-03-19T22:56:57.807Z,98923.81
2023-03-19T22:59:25.829Z,98922.59
2023-03-19T23:01:53.954Z,98922.38
2023-03-19T23:04:24.362Z,98920.34
2023-03-19T23:06:55.602Z,98918.25
2023-03-19T23:09:25.206Z,98926.22
2023-03-19T23:11:53.998Z,98919.56
2023-03-19T23:14:29.641Z,98919.56
2023-03-19T23:17:03.100Z,98922.34
2023-03-19T23:19:33.170Z,98924.19
2023-03-19T23:22:04.831Z,98926.16
2023-03-19T23:24:33.583Z,98916.19
2023-03-19T23:27:02.810Z,98919.22
2023-03-19T23:29:34.290Z,98912.09
2023-03-19T23:32:03.285Z,98909.50
2023-03-19T23:34:39.819Z,98914.06
2023-03-19T23:37:15.729Z,98908.75
2023-03-19T23:39:43.642Z,98907.19
2023-03-19T23:42:25.942Z,98906.44
2023-03-19T23:44:57.068Z,98904.38
2023-03-19T23:47:25.176Z,98907.75
2023-03-19T23:49:53.039Z,98901.28
2023-03-19T23:52:22.433Z,98905.53
2023-03-19T23:54:50.920Z,98903.41
2023-03-19T23:57:18.826Z,98899.63
2023-03-19T23:59:50.830Z,98905.22
